createdAt,value
2022-08-20T00:00:51.523Z,10.8
2022-08-20T00:01:51.636Z,11
2022-08-20T00:02:51.513Z,9.7
2022-08-20T00:03:53.271Z,10.7
2022-08-20T00:04:51.531Z,10.8
2022-08-20T00:05:51.520Z,8.8
2022-08-20T00:06:51.533Z,9.3
2022-08-20T00:07:51.604Z,10.6
2022-08-20T00:08:51.522Z,8.9
2022-08-20T00:09:51.528Z,10.4
2022-08-20T00:11:51.529Z,10.7
2022-08-20T00:12:51.530Z,10.9
2022-08-20T00:13:51.525Z,10.7
2022-08-20T00:14:51.543Z,10.9
2022-08-20T00:15:51.528Z,10.1
2022-08-20T00:16:51.587Z,10.7
2022-08-20T00:17:51.685Z,10.1
2022-08-20T00:18:51.528Z,10.4
2022-08-20T00:19:51.529Z,10.6
2022-08-20T00:20:51.529Z,10.8
2022-08-20T00:21:51.533Z,9.2
2022-08-20T00:22:51.519Z,10
2022-08-20T00:23:51.532Z,8.4
2022-08-20T00:24:51.530Z,8.3
2022-08-20T00:25:51.521Z,8.9
2022-08-20T00:26:52.551Z,8.4
2022-08-20T00:27:51.545Z,9
2022-08-20T00:28:51.525Z,8.1
2022-08-20T00:29:51.520Z,9
2022-08-20T00:30:51.535Z,9.3
2022-08-20T00:31:51.520Z,9
2022-08-20T00:32:51.533Z,8.1
2022-08-20T00:33:51.542Z,9.1
2022-08-20T00:34:51.542Z,9.2
2022-08-20T00:35:51.520Z,8.7
2022-08-20T00:36:51.541Z,9.5
2022-08-20T00:37:51.563Z,10
2022-08-20T00:38:51.549Z,8.5
2022-08-20T00:39:51.574Z,8.1
2022-08-20T00:40:51.542Z,9
2022-08-20T00:41:51.529Z,8.8
2022-08-20T00:42:51.525Z,9.7
2022-08-20T00:43:51.543Z,9.3
2022-08-20T00:44:51.535Z,8.1
2022-08-20T00:45:51.526Z,8
2022-08-20T00:46:51.529Z,8
2022-08-20T00:47:51.814Z,8.2
2022-08-20T00:48:51.534Z,7.8
2022-08-20T00:49:51.535Z,8.6
2022-08-20T00:50:51.548Z,8.9
2022-08-20T00:51:51.545Z,9.1
2022-08-20T00:52:51.529Z,8.6
2022-08-20T00:53:51.538Z,9.1
2022-08-20T00:54:51.564Z,9.2
2022-08-20T00:55:51.523Z,9
2022-08-20T00:56:51.539Z,9.6
2022-08-20T00:58:00.898Z,9.5
2022-08-20T00:58:51.546Z,9.6
2022-08-20T00:59:51.537Z,8.4
2022-08-20T01:00:51.535Z,8.8
2022-08-20T01:01:56.258Z,9.4
2022-08-20T01:02:51.557Z,9.7
2022-08-20T01:03:51.613Z,10
2022-08-20T01:04:51.541Z,10.3
2022-08-20T01:05:51.545Z,10
2022-08-20T01:06:51.546Z,10.4
2022-08-20T01:07:51.694Z,10.2
2022-08-20T01:08:51.564Z,10.3
2022-08-20T01:09:58.979Z,10.1
2022-08-20T01:10:51.543Z,9.6
2022-08-20T01:11:51.552Z,10.4
2022-08-20T01:12:53.240Z,9.7
2022-08-20T01:13:51.688Z,9.2
2022-08-20T01:14:51.576Z,10.1
2022-08-20T01:15:51.559Z,9.4
2022-08-20T01:16:51.534Z,9.8
2022-08-20T01:17:51.644Z,9.9
2022-08-20T01:18:51.622Z,9.8
2022-08-20T01:19:51.542Z,9.5
2022-08-20T01:20:51.548Z,8.8
2022-08-20T01:21:51.944Z,9.3
2022-08-20T01:22:51.542Z,9.9
2022-08-20T01:23:51.607Z,8.3
2022-08-20T01:24:51.558Z,9.2
2022-08-20T01:25:51.541Z,9
2022-08-20T01:26:52.191Z,9.4
2022-08-20T01:27:55.118Z,9.8
2022-08-20T01:28:51.668Z,9.9
2022-08-20T01:29:51.557Z,9.9
2022-08-20T01:30:51.561Z,10
2022-08-20T01:31:51.548Z,10.3
2022-08-20T01:32:51.571Z,10.3
2022-08-20T01:33:51.552Z,10.1
2022-08-20T01:34:51.552Z,10.4
2022-08-20T01:35:51.554Z,10.4
2022-08-20T01:36:51.554Z,10.2
2022-08-20T01:37:51.608Z,10
2022-08-20T01:38:54.574Z,9.8
2022-08-20T01:39:51.621Z,8.8
2022-08-20T01:40:51.558Z,9.4
2022-08-20T01:41:51.590Z,8.8
2022-08-20T01:42:58.964Z,8.6
2022-08-20T01:43:51.599Z,9.4
2022-08-20T01:44:51.557Z,7.8
2022-08-20T01:45:51.552Z,9.2
2022-08-20T01:46:51.568Z,9.7
2022-08-20T01:47:51.633Z,9.9
2022-08-20T01:48:51.621Z,10
2022-08-20T01:49:51.555Z,8.6
2022-08-20T01:50:51.561Z,9.9
2022-08-20T01:51:51.577Z,10.2
2022-08-20T01:52:51.561Z,10.1
2022-08-20T01:53:51.570Z,10.2
2022-08-20T01:54:51.600Z,10.3
2022-08-20T01:56:51.575Z,10.5
2022-08-20T01:57:51.597Z,10.5
2022-08-20T01:58:56.241Z,9.9
2022-08-20T01:59:51.579Z,9.8
2022-08-20T02:00:51.569Z,8.3
2022-08-20T02:01:51.635Z,8.8
2022-08-20T02:02:51.559Z,8
2022-08-20T02:03:51.559Z,7.4
2022-08-20T02:04:51.572Z,7.6
2022-08-20T02:05:51.571Z,8.2
2022-08-20T02:06:56.362Z,9
2022-08-20T02:07:51.613Z,8.6
2022-08-20T02:08:51.687Z,8.6
2022-08-20T02:09:51.574Z,9.1
2022-08-20T02:10:51.574Z,9.5
2022-08-20T02:11:51.617Z,9.8
2022-08-20T02:12:51.574Z,9.6
2022-08-20T02:13:51.592Z,10.1
2022-08-20T02:14:51.565Z,10
2022-08-20T02:15:51.567Z,9.2
2022-08-20T02:16:55.508Z,9.9
2022-08-20T02:17:51.608Z,9.6
2022-08-20T02:18:51.608Z,9.3
2022-08-20T02:19:51.561Z,8.5
2022-08-20T02:20:51.576Z,8.5
2022-08-20T02:21:51.570Z,8.2
2022-08-20T02:22:51.563Z,8.3
2022-08-20T02:23:51.555Z,8.9
2022-08-20T02:24:51.565Z,8.1
2022-08-20T02:25:51.583Z,8.2
2022-08-20T02:26:58.299Z,7.8
2022-08-20T02:27:51.609Z,8.4
2022-08-20T02:28:51.567Z,8.2
2022-08-20T02:29:51.566Z,7.8
2022-08-20T02:30:51.616Z,7.9
2022-08-20T02:32:24.694Z,7.9
2022-08-20T02:32:51.571Z,7.2
2022-08-20T02:34:14.800Z,6.9
2022-08-20T02:34:51.601Z,7.2
2022-08-20T02:35:51.638Z,7.3
2022-08-20T02:36:51.565Z,6.8
2022-08-20T02:37:51.690Z,7.2
2022-08-20T02:38:51.632Z,6.5
2022-08-20T02:39:51.592Z,6.9
2022-08-20T02:40:51.576Z,6.6
2022-08-20T02:41:51.571Z,7
2022-08-20T02:42:51.571Z,6.7
2022-08-20T02:43:51.591Z,7.1
2022-08-20T02:44:51.564Z,6.7
2022-08-20T02:45:51.586Z,7.9
2022-08-20T02:46:51.579Z,8.4
2022-08-20T02:47:51.578Z,7.5
2022-08-20T02:48:51.768Z,7.6
2022-08-20T02:49:51.583Z,8.4
2022-08-20T02:50:51.597Z,7.8
2022-08-20T02:51:51.580Z,8.4
2022-08-20T02:52:52.282Z,8.9
2022-08-20T02:53:51.602Z,7.9
2022-08-20T02:54:51.575Z,8.5
2022-08-20T02:55:51.574Z,8.9
2022-08-20T02:56:51.585Z,9
2022-08-20T02:57:51.613Z,8.6
2022-08-20T02:58:51.595Z,9
2022-08-20T02:59:51.575Z,9.4
2022-08-20T03:00:51.575Z,9.5
2022-08-20T03:01:59.282Z,9.7
2022-08-20T03:02:51.582Z,9.3
2022-08-20T03:03:51.575Z,9.4
2022-08-20T03:04:51.595Z,9.3
2022-08-20T03:05:51.581Z,9
2022-08-20T03:06:51.593Z,9.7
2022-08-20T03:07:51.684Z,9.9
2022-08-20T03:08:51.571Z,9.9
2022-08-20T03:09:51.651Z,10
2022-08-20T03:10:51.585Z,9.8
2022-08-20T03:11:51.636Z,10
2022-08-20T03:12:51.610Z,10.1
2022-08-20T03:13:51.760Z,10.1
2022-08-20T03:14:51.583Z,9.4
2022-08-20T03:15:55.250Z,8.9
2022-08-20T03:16:51.651Z,8.8
2022-08-20T03:17:51.649Z,8.9
2022-08-20T03:18:52.094Z,9.3
2022-08-20T03:19:51.589Z,9.3
2022-08-20T03:20:52.230Z,9.5
2022-08-20T03:21:51.580Z,9.7
2022-08-20T03:22:51.594Z,9.8
2022-08-20T03:23:51.826Z,9.9
2022-08-20T03:24:51.588Z,10
2022-08-20T03:25:51.581Z,10.1
2022-08-20T03:26:45.676Z,10.1
2022-08-20T03:27:54.041Z,9.3
2022-08-20T03:28:51.695Z,8.6
2022-08-20T03:29:51.587Z,8.3
2022-08-20T03:30:51.613Z,7.9
2022-08-20T03:31:51.587Z,7.9
2022-08-20T03:32:51.591Z,7.5
2022-08-20T03:33:53.595Z,8.3
2022-08-20T03:34:51.593Z,8.8
2022-08-20T03:35:51.592Z,9.2
2022-08-20T03:36:51.585Z,8.9
2022-08-20T03:37:51.646Z,9.1
2022-08-20T03:38:51.585Z,9.3
2022-08-20T03:39:51.624Z,9.5
2022-08-20T03:40:51.596Z,9.7
2022-08-20T03:41:51.607Z,9.8
2022-08-20T03:42:51.610Z,10
2022-08-20T03:43:51.599Z,10
2022-08-20T03:44:58.868Z,10.1
2022-08-20T03:45:51.608Z,10.1
2022-08-20T03:46:51.594Z,10.2
2022-08-20T03:47:51.651Z,10.2
2022-08-20T03:48:56.376Z,10.3
2022-08-20T03:49:51.598Z,10.4
2022-08-20T03:50:51.589Z,10.4
2022-08-20T03:51:58.198Z,10.4
2022-08-20T03:52:51.593Z,10.5
2022-08-20T03:53:51.585Z,10.5
2022-08-20T03:54:51.598Z,10.5
2022-08-20T03:55:54.112Z,10.5
2022-08-20T03:56:51.596Z,10.6
2022-08-20T03:57:51.625Z,10.5
2022-08-20T03:58:51.589Z,10.6
2022-08-20T03:59:54.633Z,10.4
2022-08-20T04:00:51.595Z,10.5
2022-08-20T04:01:51.653Z,10.5
2022-08-20T04:02:51.628Z,10.6
2022-08-20T04:03:55.108Z,10.6
2022-08-20T04:04:51.595Z,10.2
2022-08-20T04:05:51.607Z,9.1
2022-08-20T04:06:51.604Z,9.2
2022-08-20T04:07:51.602Z,8.9
2022-08-20T04:08:51.617Z,9.4
2022-08-20T04:09:51.599Z,9.6
2022-08-20T04:10:51.606Z,9.8
2022-08-20T04:11:51.615Z,9.8
2022-08-20T04:12:53.202Z,9.8
2022-08-20T04:13:51.594Z,10
2022-08-20T04:14:51.601Z,10
2022-08-20T04:15:51.607Z,10.1
2022-08-20T04:16:51.606Z,10.2
2022-08-20T04:17:51.666Z,10.2
2022-08-20T04:18:58.640Z,10.3
2022-08-20T04:19:51.600Z,10.4
2022-08-20T04:20:51.605Z,10.4
2022-08-20T04:21:51.609Z,10.4
2022-08-20T04:22:59.194Z,10.5
2022-08-20T04:23:51.734Z,10.4
2022-08-20T04:24:51.603Z,10.4
2022-08-20T04:25:51.603Z,10.4
2022-08-20T04:26:51.601Z,10.5
2022-08-20T04:27:51.612Z,10.5
2022-08-20T04:28:51.751Z,10.5
2022-08-20T04:29:51.639Z,10.5
2022-08-20T04:30:51.785Z,10.6
2022-08-20T04:31:51.617Z,10.6
2022-08-20T04:32:51.615Z,10.6
2022-08-20T04:33:51.601Z,10.6
2022-08-20T04:34:51.607Z,10.7
2022-08-20T04:35:51.612Z,10.7
2022-08-20T04:36:51.606Z,10.7
2022-08-20T04:37:51.627Z,10.7
2022-08-20T04:38:51.622Z,10.7
2022-08-20T04:39:51.665Z,10.8
2022-08-20T04:40:51.605Z,10.8
2022-08-20T04:42:53.953Z,10.9
2022-08-20T04:44:01.920Z,10.8
2022-08-20T04:45:01.904Z,10.8
2022-08-20T04:46:01.904Z,10.8
2022-08-20T04:46:51.605Z,10.8
2022-08-20T04:47:51.710Z,10.8
2022-08-20T04:48:51.613Z,10.8
2022-08-20T04:49:51.628Z,10.8
2022-08-20T04:50:51.616Z,10.8
2022-08-20T04:51:51.619Z,10.9
2022-08-20T04:52:51.608Z,10.9
2022-08-20T04:53:53.268Z,10.9
2022-08-20T04:54:51.644Z,10.9
2022-08-20T04:55:51.608Z,10.7
2022-08-20T04:56:51.621Z,9.7
2022-08-20T04:57:51.717Z,8.7
2022-08-20T04:58:51.625Z,8
2022-08-20T04:59:51.615Z,7.5
2022-08-20T05:00:51.649Z,7.5
2022-08-20T05:01:51.854Z,7.5
2022-08-20T05:02:51.835Z,8.3
2022-08-20T05:03:51.660Z,8.9
2022-08-20T05:04:51.620Z,9.2
2022-08-20T05:05:51.624Z,8.3
2022-08-20T05:06:51.639Z,7.7
2022-08-20T05:07:51.636Z,7.4
2022-08-20T05:08:51.655Z,7.8
2022-08-20T05:09:51.620Z,8.3
2022-08-20T05:10:53.317Z,7.4
2022-08-20T05:11:51.623Z,6.9
2022-08-20T05:12:56.842Z,6.6
2022-08-20T05:13:51.669Z,6.4
2022-08-20T05:14:51.646Z,6.3
2022-08-20T05:15:51.624Z,6.1
2022-08-20T05:17:51.679Z,6.7
2022-08-20T05:18:52.313Z,6.5
2022-08-20T05:20:01.901Z,7.5
2022-08-20T05:21:02.022Z,6.9
2022-08-20T05:22:01.943Z,6.5
2022-08-20T05:22:51.714Z,7.7
2022-08-20T05:23:51.702Z,7.7
2022-08-20T05:24:51.630Z,8.3
2022-08-20T05:25:51.630Z,7.3
2022-08-20T05:26:51.624Z,7.1
2022-08-20T05:27:51.651Z,6.5
2022-08-20T05:28:57.810Z,6
2022-08-20T05:29:51.642Z,5.6
2022-08-20T05:30:51.626Z,5.6
2022-08-20T05:31:51.639Z,6
2022-08-20T05:32:51.657Z,7.2
2022-08-20T05:33:51.628Z,7.8
2022-08-20T05:34:51.660Z,7.7
2022-08-20T05:35:51.635Z,8
2022-08-20T05:36:51.641Z,6.8
2022-08-20T05:37:51.663Z,6.5
2022-08-20T05:38:51.826Z,6.9
2022-08-20T05:39:51.683Z,7.9
2022-08-20T05:40:51.636Z,8.2
2022-08-20T05:41:51.637Z,6.9
2022-08-20T05:42:51.995Z,6.5
2022-08-20T05:43:51.698Z,7.1
2022-08-20T05:44:51.622Z,7.5
2022-08-20T05:45:56.403Z,6.6
2022-08-20T05:46:51.625Z,6.3
2022-08-20T05:47:56.385Z,5.9
2022-08-20T05:48:51.639Z,5.7
2022-08-20T05:49:51.632Z,5.5
2022-08-20T05:50:51.635Z,5.2
2022-08-20T05:51:51.651Z,5.1
2022-08-20T05:52:51.651Z,5.1
2022-08-20T05:53:51.691Z,5.1
2022-08-20T05:54:51.639Z,5
2022-08-20T05:55:51.655Z,5
2022-08-20T05:56:51.640Z,5.1
2022-08-20T05:57:51.653Z,5.1
2022-08-20T05:58:51.829Z,5
2022-08-20T05:59:51.641Z,4.9
2022-08-20T06:00:51.687Z,4.9
2022-08-20T06:01:51.642Z,5
2022-08-20T06:02:51.668Z,4.9
2022-08-20T06:03:51.640Z,5
2022-08-20T06:04:56.236Z,5.4
2022-08-20T06:05:51.645Z,5.5
2022-08-20T06:06:51.634Z,5.4
2022-08-20T06:07:51.660Z,5.3
2022-08-20T06:08:51.655Z,5.2
2022-08-20T06:09:51.637Z,5
2022-08-20T06:10:51.646Z,5.6
2022-08-20T06:11:51.632Z,5.5
2022-08-20T06:12:51.667Z,5.8
2022-08-20T06:13:51.677Z,6.9
2022-08-20T06:14:51.642Z,6.4
2022-08-20T06:15:51.640Z,6.4
2022-08-20T06:16:57.329Z,6.4
2022-08-20T06:17:58.329Z,6.4
2022-08-20T06:18:51.712Z,7.6
2022-08-20T06:19:51.639Z,8.2
2022-08-20T06:20:51.668Z,7.1
2022-08-20T06:21:51.657Z,8
2022-08-20T06:22:51.674Z,7.8
2022-08-20T06:23:56.963Z,8.1
2022-08-20T06:24:51.642Z,7.8
2022-08-20T06:25:51.636Z,8.3
2022-08-20T06:26:51.660Z,8.5
2022-08-20T06:27:51.660Z,8.9
2022-08-20T06:28:54.179Z,9
2022-08-20T06:29:51.663Z,9.3
2022-08-20T06:30:51.642Z,9.5
2022-08-20T06:31:51.644Z,9.4
2022-08-20T06:32:51.661Z,9.5
2022-08-20T06:33:51.732Z,9.7
2022-08-20T06:34:51.645Z,9.7
2022-08-20T06:35:51.640Z,9.9
2022-08-20T06:36:51.647Z,9.9
2022-08-20T06:37:51.671Z,10
2022-08-20T06:38:51.746Z,10
2022-08-20T06:39:51.717Z,10.1
2022-08-20T06:40:51.645Z,10.1
2022-08-20T06:41:51.719Z,10.2
2022-08-20T06:42:51.665Z,10.1
2022-08-20T06:43:51.655Z,10.2
2022-08-20T06:44:51.714Z,10.2
2022-08-20T06:45:51.667Z,10.1
2022-08-20T06:46:51.654Z,10.2
2022-08-20T06:47:51.827Z,10.2
2022-08-20T06:48:51.741Z,10.1
2022-08-20T06:49:51.651Z,10.1
2022-08-20T06:50:51.652Z,8.9
2022-08-20T06:51:52.038Z,9.6
2022-08-20T06:52:53.240Z,9.5
2022-08-20T06:53:51.786Z,9.8
2022-08-20T06:54:51.662Z,9.9
2022-08-20T06:55:51.658Z,9.6
2022-08-20T06:56:51.660Z,9.4
2022-08-20T06:57:51.685Z,9.8
2022-08-20T06:58:51.662Z,9.6
2022-08-20T06:59:54.086Z,9.8
2022-08-20T07:00:51.684Z,9.7
2022-08-20T07:01:51.659Z,9.5
2022-08-20T07:02:51.676Z,8.7
2022-08-20T07:03:55.594Z,9.2
2022-08-20T07:04:51.652Z,9.1
2022-08-20T07:05:51.857Z,9.5
2022-08-20T07:06:51.660Z,9.5
2022-08-20T07:07:51.687Z,9.8
2022-08-20T07:08:51.695Z,9.5
2022-08-20T07:09:51.672Z,9.6
2022-08-20T07:10:51.660Z,9.7
2022-08-20T07:11:51.668Z,9.8
2022-08-20T07:12:51.677Z,9.1
2022-08-20T07:13:51.882Z,9.2
2022-08-20T07:14:51.658Z,9.6
2022-08-20T07:15:53.997Z,8.4
2022-08-20T07:16:51.695Z,9.4
2022-08-20T07:17:51.734Z,9.4
2022-08-20T07:18:51.674Z,9.7
2022-08-20T07:19:51.662Z,9.6
2022-08-20T07:20:51.652Z,9.6
2022-08-20T07:21:51.662Z,9.7
2022-08-20T07:22:51.725Z,9.8
2022-08-20T07:23:51.656Z,9.9
2022-08-20T07:24:51.651Z,9.9
2022-08-20T07:25:51.657Z,9.9
2022-08-20T07:26:51.813Z,9.3
2022-08-20T07:27:51.753Z,9.9
2022-08-20T07:28:51.706Z,9.9
2022-08-20T07:29:51.659Z,10
2022-08-20T07:30:55.928Z,10.1
2022-08-20T07:31:51.661Z,9.9
2022-08-20T07:32:51.675Z,9.9
2022-08-20T07:33:51.654Z,9.6
2022-08-20T07:34:51.663Z,9.1
2022-08-20T07:35:51.683Z,9.5
2022-08-20T07:36:51.666Z,9.6
2022-08-20T07:37:51.674Z,9.9
2022-08-20T07:38:51.663Z,9.7
2022-08-20T07:39:51.746Z,9.6
2022-08-20T07:40:51.672Z,9.8
2022-08-20T07:41:56.499Z,10
2022-08-20T07:42:51.702Z,9.6
2022-08-20T07:43:51.710Z,9.9
2022-08-20T07:44:51.670Z,9.9
2022-08-20T07:45:52.193Z,9.8
2022-08-20T07:46:51.681Z,10
2022-08-20T07:47:51.689Z,10
2022-08-20T07:48:51.834Z,10.2
2022-08-20T07:49:51.696Z,10.3
2022-08-20T07:50:51.792Z,10.3
2022-08-20T07:51:51.808Z,10.2
2022-08-20T07:52:51.913Z,10.3
2022-08-20T07:53:52.099Z,10.2
2022-08-20T07:55:58.770Z,10.3
2022-08-20T07:56:51.679Z,10.3
2022-08-20T07:57:51.684Z,9.5
2022-08-20T07:58:51.668Z,10
2022-08-20T07:59:51.679Z,10
2022-08-20T08:00:51.742Z,10.1
2022-08-20T08:01:51.675Z,10.1
2022-08-20T08:02:51.674Z,10.1
2022-08-20T08:03:51.675Z,10.1
2022-08-20T08:04:51.673Z,10.2
2022-08-20T08:05:51.670Z,10.2
2022-08-20T08:06:51.678Z,10.2
2022-08-20T08:07:51.690Z,10.1
2022-08-20T08:08:51.681Z,9.4
2022-08-20T08:09:51.679Z,9.6
2022-08-20T08:10:51.677Z,9.9
2022-08-20T08:11:51.676Z,9.7
2022-08-20T08:12:51.751Z,9.9
2022-08-20T08:13:51.675Z,10
2022-08-20T08:14:51.684Z,10.1
2022-08-20T08:15:51.686Z,9.9
2022-08-20T08:16:51.672Z,10.1
2022-08-20T08:17:51.729Z,10.2
2022-08-20T08:18:51.721Z,10
2022-08-20T08:19:51.689Z,9.9
2022-08-20T08:20:51.701Z,9.5
2022-08-20T08:21:51.685Z,9.6
2022-08-20T08:22:51.744Z,9.8
2022-08-20T08:23:51.725Z,9.9
2022-08-20T08:24:57.088Z,10.1
2022-08-20T08:25:51.672Z,10.2
2022-08-20T08:26:51.699Z,9.9
2022-08-20T08:27:51.785Z,10
2022-08-20T08:28:51.696Z,10.3
2022-08-20T08:29:51.691Z,10.3
2022-08-20T08:30:51.688Z,10.1
2022-08-20T08:31:51.694Z,10.1
2022-08-20T08:32:51.695Z,10.3
2022-08-20T08:33:51.686Z,9.9
2022-08-20T08:34:51.690Z,9.9
2022-08-20T08:35:51.705Z,9.6
2022-08-20T08:36:51.695Z,10
2022-08-20T08:37:51.710Z,10.1
2022-08-20T08:38:51.714Z,10.2
2022-08-20T08:39:51.780Z,10.2
2022-08-20T08:40:51.718Z,10.3
2022-08-20T08:41:51.696Z,10.3
2022-08-20T08:42:51.715Z,10.2
2022-08-20T08:43:51.694Z,10.2
2022-08-20T08:44:51.751Z,10.3
2022-08-20T08:45:51.683Z,10.4
2022-08-20T08:46:51.696Z,10.4
2022-08-20T08:47:51.726Z,10
2022-08-20T08:48:51.715Z,9.6
2022-08-20T08:49:51.695Z,9.7
2022-08-20T08:50:53.989Z,9.7
2022-08-20T08:51:51.711Z,9.9
2022-08-20T08:52:51.711Z,10
2022-08-20T08:53:51.712Z,9.7
2022-08-20T08:54:51.717Z,9.6
2022-08-20T08:55:51.701Z,9.4
2022-08-20T08:56:51.711Z,9.3
2022-08-20T08:57:51.734Z,9.1
2022-08-20T08:58:51.699Z,9.3
2022-08-20T09:00:04.391Z,9.4
2022-08-20T09:00:56.652Z,9.3
2022-08-20T09:01:54.280Z,9.5
2022-08-20T09:02:51.817Z,9.3
2022-08-20T09:03:51.710Z,9.4
2022-08-20T09:04:51.704Z,9.5
2022-08-20T09:05:51.693Z,9.3
2022-08-20T09:06:52.462Z,9.1
2022-08-20T09:07:51.863Z,9.1
2022-08-20T09:08:51.766Z,8.9
2022-08-20T09:09:51.896Z,8.6
2022-08-20T09:10:51.716Z,8.8
2022-08-20T09:11:51.699Z,8.8
2022-08-20T09:12:52.154Z,9
2022-08-20T09:13:51.707Z,8.9
2022-08-20T09:14:51.700Z,8.8
2022-08-20T09:15:51.699Z,8.9
2022-08-20T09:16:53.240Z,8.6
2022-08-20T09:17:51.855Z,8.8
2022-08-20T09:18:51.714Z,8.6
2022-08-20T09:19:51.723Z,8.2
2022-08-20T09:20:51.703Z,8.3
2022-08-20T09:21:51.719Z,8.4
2022-08-20T09:22:51.944Z,8.8
2022-08-20T09:23:51.710Z,9.2
2022-08-20T09:24:51.709Z,9.3
2022-08-20T09:25:51.729Z,9.3
2022-08-20T09:26:51.712Z,9.5
2022-08-20T09:27:51.757Z,9.8
2022-08-20T09:28:52.251Z,9.7
2022-08-20T09:29:51.712Z,10
2022-08-20T09:30:51.703Z,10
2022-08-20T09:31:51.709Z,9.8
2022-08-20T09:32:51.719Z,10
2022-08-20T09:33:51.716Z,10.1
2022-08-20T09:34:51.714Z,9.8
2022-08-20T09:35:51.724Z,9.7
2022-08-20T09:36:51.724Z,9.4
2022-08-20T09:37:51.785Z,9.2
2022-08-20T09:38:51.735Z,9
2022-08-20T09:39:51.788Z,9.1
2022-08-20T09:40:51.702Z,8.9
2022-08-20T09:41:51.724Z,8.8
2022-08-20T09:42:51.834Z,8.6
2022-08-20T09:43:51.719Z,8.5
2022-08-20T09:44:51.713Z,8.5
2022-08-20T09:45:51.707Z,8.9
2022-08-20T09:46:51.720Z,8.6
2022-08-20T09:47:55.052Z,8.8
2022-08-20T09:48:51.725Z,8.7
2022-08-20T09:49:51.731Z,9
2022-08-20T09:50:51.708Z,9
2022-08-20T09:51:51.744Z,9
2022-08-20T09:52:51.737Z,9
2022-08-20T09:53:51.734Z,8.8
2022-08-20T09:54:51.714Z,8.8
2022-08-20T09:55:51.725Z,9
2022-08-20T09:56:51.733Z,8.9
2022-08-20T09:57:51.710Z,8.9
2022-08-20T09:58:51.722Z,9.1
2022-08-20T09:59:51.741Z,9
2022-08-20T10:00:51.731Z,9.2
2022-08-20T10:01:51.786Z,9.7
2022-08-20T10:02:51.734Z,9.6
2022-08-20T10:03:51.712Z,9.8
2022-08-20T10:04:51.732Z,9.9
2022-08-20T10:05:51.737Z,9.9
2022-08-20T10:06:51.741Z,10.1
2022-08-20T10:07:51.734Z,10
2022-08-20T10:08:51.723Z,9.7
2022-08-20T10:09:51.742Z,9.3
2022-08-20T10:10:51.730Z,9
2022-08-20T10:11:51.730Z,9.4
2022-08-20T10:12:54.938Z,9.7
2022-08-20T10:13:51.734Z,9.4
2022-08-20T10:14:51.718Z,9.8
2022-08-20T10:15:51.714Z,9.5
2022-08-20T10:16:51.728Z,9.2
2022-08-20T10:17:51.737Z,9.5
2022-08-20T10:18:51.733Z,9.4
2022-08-20T10:19:51.734Z,9.4
2022-08-20T10:20:51.739Z,9.2
2022-08-20T10:21:51.730Z,9.3
2022-08-20T10:22:51.724Z,9.5
2022-08-20T10:23:51.778Z,9.6
2022-08-20T10:24:51.720Z,9.5
2022-08-20T10:25:51.738Z,9.2
2022-08-20T10:26:51.726Z,9.3
2022-08-20T10:27:51.736Z,9.7
2022-08-20T10:28:51.753Z,9.8
2022-08-20T10:29:51.755Z,9.6
2022-08-20T10:30:51.732Z,9.6
2022-08-20T10:31:51.717Z,9.5
2022-08-20T10:32:51.741Z,9.6
2022-08-20T10:33:51.734Z,9.9
2022-08-20T10:35:51.721Z,9.8
2022-08-20T10:36:51.722Z,9.5
2022-08-20T10:37:51.867Z,9.5
2022-08-20T10:38:51.756Z,9.8
2022-08-20T10:39:51.751Z,9.9
2022-08-20T10:40:52.566Z,9.9
2022-08-20T10:41:51.727Z,9.5
2022-08-20T10:42:51.746Z,9.4
2022-08-20T10:43:51.725Z,9.2
2022-08-20T10:44:51.732Z,9.3
2022-08-20T10:45:51.758Z,9.3
2022-08-20T10:46:51.722Z,9.2
2022-08-20T10:47:58.468Z,9.3
2022-08-20T10:48:51.735Z,9.2
2022-08-20T10:49:51.727Z,9
2022-08-20T10:50:51.730Z,8.8
2022-08-20T10:51:51.722Z,8.8
2022-08-20T10:52:51.742Z,8.8
2022-08-20T10:53:51.757Z,8.8
2022-08-20T10:54:51.730Z,9.2
2022-08-20T10:55:51.726Z,9.2
2022-08-20T10:56:51.732Z,9.3
2022-08-20T10:57:51.832Z,9.5
2022-08-20T10:58:51.724Z,9.8
2022-08-20T10:59:51.733Z,9.9
2022-08-20T11:00:51.735Z,10.2
2022-08-20T11:01:51.757Z,10.1
2022-08-20T11:02:51.731Z,10.5
2022-08-20T11:03:51.759Z,10.2
2022-08-20T11:04:51.743Z,10.2
2022-08-20T11:05:51.739Z,9.9
2022-08-20T11:06:51.737Z,9.8
2022-08-20T11:07:56.494Z,10
2022-08-20T11:08:51.749Z,9.9
2022-08-20T11:09:51.763Z,9.9
2022-08-20T11:10:51.742Z,9.9
2022-08-20T11:11:51.745Z,10.1
2022-08-20T11:12:51.740Z,10.3
2022-08-20T11:13:51.742Z,10.5
2022-08-20T11:14:51.743Z,10.6
2022-08-20T11:15:51.743Z,11
2022-08-20T11:16:51.734Z,10.6
2022-08-20T11:18:51.737Z,10.2
2022-08-20T11:19:51.740Z,10
2022-08-20T11:20:51.747Z,9.9
2022-08-20T11:21:51.765Z,9.9
2022-08-20T11:22:51.739Z,10.4
2022-08-20T11:23:51.765Z,10.4
2022-08-20T11:24:51.744Z,10.6
2022-08-20T11:25:51.741Z,10.3
2022-08-20T11:26:51.755Z,10.1
2022-08-20T11:27:51.748Z,10.3
2022-08-20T11:28:51.746Z,10.2
2022-08-20T11:29:51.733Z,10.6
2022-08-20T11:30:51.742Z,10.2
2022-08-20T11:31:51.733Z,9.8
2022-08-20T11:32:51.745Z,10.1
2022-08-20T11:33:51.766Z,10.6
2022-08-20T11:34:51.737Z,10.3
2022-08-20T11:35:51.741Z,10.2
2022-08-20T11:36:51.754Z,10.3
2022-08-20T11:37:51.774Z,10.6
2022-08-20T11:38:51.785Z,10.8
2022-08-20T11:39:51.802Z,11.1
2022-08-20T11:40:51.735Z,11.2
2022-08-20T11:41:55.247Z,11.4
2022-08-20T11:43:13.828Z,11.6
2022-08-20T11:44:17.550Z,11.6
2022-08-20T11:44:51.753Z,12
2022-08-20T11:45:51.751Z,12.6
2022-08-20T11:46:51.750Z,12.6
2022-08-20T11:47:45.678Z,12.3
2022-08-20T11:48:51.750Z,11.3
2022-08-20T11:49:51.774Z,11.3
2022-08-20T11:50:51.782Z,11.3
2022-08-20T11:51:51.770Z,11.5
2022-08-20T11:52:51.776Z,11.8
2022-08-20T11:53:51.745Z,12
2022-08-20T11:54:54.760Z,11.7
2022-08-20T11:55:51.749Z,11.8
2022-08-20T11:56:51.755Z,12.1
2022-08-20T11:57:51.766Z,12.2
2022-08-20T11:58:51.746Z,11.3
2022-08-20T11:59:51.755Z,11.8
2022-08-20T12:00:51.754Z,11.3
2022-08-20T12:02:02.326Z,11.5
2022-08-20T12:02:51.942Z,10.8
2022-08-20T12:03:51.748Z,10.8
2022-08-20T12:04:51.769Z,11.3
2022-08-20T12:05:51.769Z,11.4
2022-08-20T12:06:51.751Z,11.3
2022-08-20T12:07:51.749Z,10.8
2022-08-20T12:08:51.764Z,11
2022-08-20T12:09:51.759Z,10.5
2022-08-20T12:10:51.756Z,10.9
2022-08-20T12:11:51.759Z,10.2
2022-08-20T12:12:51.762Z,10.8
2022-08-20T12:13:51.763Z,10.3
2022-08-20T12:14:51.758Z,10.5
2022-08-20T12:15:51.759Z,10.8
2022-08-20T12:16:51.752Z,11.1
2022-08-20T12:17:51.750Z,11.4
2022-08-20T12:18:51.760Z,11.8
2022-08-20T12:19:51.788Z,11.4
2022-08-20T12:20:51.791Z,11.7
2022-08-20T12:21:51.775Z,11.7
2022-08-20T12:22:51.780Z,11.3
2022-08-20T12:23:51.826Z,11.1
2022-08-20T12:24:51.759Z,11.1
2022-08-20T12:25:51.761Z,11
2022-08-20T12:26:51.757Z,11.2
2022-08-20T12:27:51.767Z,11
2022-08-20T12:28:51.774Z,10.4
2022-08-20T12:29:51.765Z,10.7
2022-08-20T12:30:51.772Z,10.6
2022-08-20T12:31:51.771Z,10.1
2022-08-20T12:32:51.771Z,10.8
2022-08-20T12:33:51.775Z,10.9
2022-08-20T12:34:51.788Z,11
2022-08-20T12:35:51.757Z,10.8
2022-08-20T12:36:51.977Z,11
2022-08-20T12:37:51.766Z,11.5
2022-08-20T12:38:51.780Z,11.5
2022-08-20T12:39:51.859Z,11.7
2022-08-20T12:40:51.769Z,12
2022-08-20T12:41:51.828Z,12.1
2022-08-20T12:42:51.759Z,11.9
2022-08-20T12:43:51.773Z,11.5
2022-08-20T12:44:51.771Z,11.3
2022-08-20T12:45:51.771Z,11.2
2022-08-20T12:46:51.777Z,11
2022-08-20T12:47:51.761Z,11
2022-08-20T12:48:51.784Z,11
2022-08-20T12:49:51.800Z,10.7
2022-08-20T12:50:51.958Z,10.9
2022-08-20T12:51:51.759Z,10.8
2022-08-20T12:52:51.783Z,10.6
2022-08-20T12:53:51.818Z,10.5
2022-08-20T12:54:51.782Z,10.4
2022-08-20T12:55:51.784Z,10.4
2022-08-20T12:56:51.777Z,10.4
2022-08-20T12:57:51.771Z,10.7
2022-08-20T12:58:51.791Z,10.5
2022-08-20T12:59:51.774Z,10.1
2022-08-20T13:00:51.775Z,10.7
2022-08-20T13:01:51.806Z,10.8
2022-08-20T13:02:51.773Z,11.1
2022-08-20T13:03:51.792Z,10.9
2022-08-20T13:04:51.793Z,11.1
2022-08-20T13:05:51.825Z,11.2
2022-08-20T13:06:51.771Z,11.1
2022-08-20T13:07:51.770Z,11.1
2022-08-20T13:08:51.782Z,10.5
2022-08-20T13:09:51.780Z,11.1
2022-08-20T13:10:51.861Z,11.4
2022-08-20T13:11:51.776Z,11.4
2022-08-20T13:12:51.780Z,10.7
2022-08-20T13:13:52.228Z,11.2
2022-08-20T13:14:51.769Z,11.2
2022-08-20T13:15:51.772Z,10.5
2022-08-20T13:16:51.772Z,11
2022-08-20T13:17:51.777Z,11
2022-08-20T13:18:51.795Z,10.9
2022-08-20T13:19:51.795Z,11.1
2022-08-20T13:20:51.777Z,11
2022-08-20T13:21:54.942Z,11.1
2022-08-20T13:22:51.776Z,11.4
2022-08-20T13:23:51.789Z,11.5
2022-08-20T13:24:51.805Z,11.7
2022-08-20T13:25:51.776Z,10.6
2022-08-20T13:26:51.776Z,11.3
2022-08-20T13:27:51.796Z,10.8
2022-08-20T13:28:51.813Z,11.2
2022-08-20T13:29:56.368Z,11.3
2022-08-20T13:30:51.778Z,11.4
2022-08-20T13:31:51.775Z,11.8
2022-08-20T13:32:51.775Z,12
2022-08-20T13:33:51.784Z,12.3
2022-08-20T13:34:51.805Z,12.5
2022-08-20T13:35:51.782Z,12.6
2022-08-20T13:36:52.003Z,12.6
2022-08-20T13:37:51.802Z,12.7
2022-08-20T13:38:51.798Z,12.7
2022-08-20T13:39:51.906Z,12.9
2022-08-20T13:40:51.786Z,13
2022-08-20T13:41:51.793Z,13.2
2022-08-20T13:42:52.101Z,13.4
2022-08-20T13:43:51.800Z,13.1
2022-08-20T13:44:51.824Z,13.4
2022-08-20T13:45:51.783Z,12.8
2022-08-20T13:46:51.790Z,13.1
2022-08-20T13:47:51.779Z,13.1